New River, Virginia
Current Conditions -  °F | °C
As of 5:35 AM on Monday 22 Dec 2014 (Local Time) from KPSK Reporting Station
Overcast Overcast  
Wind Chill: 32°   Ceiling: 1800
Heat Index: 36°   Visibility: 10mi
Dew Point: 33°   Wind: 5mph
Humidity: 89%   Direction: 70°ENE
Pressure: 30.14"   Gusts: NA
Location:  37.13°N, 80.59°W
Report Text: KPSK 221035Z AUTO 07004KT 10SM OVC018 02/01 A3014 RMK AO2 T00220005
Loading
Personal Weather Stations






























Interactive Weather Map New forecast layout! Learn more

10-Day Weather Forecast

Advertisements
Track Severe Weather on mobile